sensor_id;sensor_type;location;lat;lon;timestamp;pressure;altitude;pressure_sealevel;temperature;humidity
53758;BME280;39674;59.860;30.672;2022-12-18T00:00:16;102267.50;;;-7.54;100.00
53758;BME280;39674;59.860;30.672;2022-12-18T00:02:45;102268.47;;;-7.52;100.00
53758;BME280;39674;59.860;30.672;2022-12-18T00:05:16;102269.44;;;-7.50;100.00
53758;BME280;39674;59.860;30.672;2022-12-18T00:07:45;102257.53;;;-7.48;100.00
53758;BME280;39674;59.860;30.672;2022-12-18T00:10:17;102266.19;;;-7.46;100.00
53758;BME280;39674;59.860;30.672;2022-12-18T00:12:46;102262.84;;;-7.45;100.00
53758;BME280;39674;59.860;30.672;2022-12-18T00:15:14;102269.28;;;-7.53;100.00
53758;BME280;39674;59.860;30.672;2022-12-18T00:17:43;102265.91;;;-7.52;100.00
53758;BME280;39674;59.860;30.672;2022-12-18T00:20:11;102266.66;;;-7.55;100.00
53758;BME280;39674;59.860;30.672;2022-12-18T00:22:39;102270.97;;;-7.54;100.00
53758;BME280;39674;59.860;30.672;2022-12-18T00:25:07;102266.78;;;-7.52;100.00
53758;BME280;39674;59.860;30.672;2022-12-18T00:27:37;102267.69;;;-7.51;100.00
53758;BME280;39674;59.860;30.672;2022-12-18T00:30:06;102271.03;;;-7.52;100.00
53758;BME280;39674;59.860;30.672;2022-12-18T00:32:39;102265.09;;;-7.51;100.00
53758;BME280;39674;59.860;30.672;2022-12-18T00:35:08;102270.25;;;-7.51;100.00
53758;BME280;39674;59.860;30.672;2022-12-18T00:37:37;102266.88;;;-7.50;100.00
53758;BME280;39674;59.860;30.672;2022-12-18T00:40:07;102254.16;;;-7.47;100.00
53758;BME280;39674;59.860;30.672;2022-12-18T00:42:38;102257.25;;;-7.54;100.00
53758;BME280;39674;59.860;30.672;2022-12-18T00:45:23;102252.72;;;-7.60;100.00
53758;BME280;39674;59.860;30.672;2022-12-18T00:47:52;102254.38;;;-7.61;100.00
53758;BME280;39674;59.860;30.672;2022-12-18T00:50:22;102255.34;;;-7.59;100.00
53758;BME280;39674;59.860;30.672;2022-12-18T00:52:54;102258.84;;;-7.57;100.00
53758;BME280;39674;59.860;30.672;2022-12-18T00:55:22;102253.00;;;-7.54;100.00
53758;BME280;39674;59.860;30.672;2022-12-18T00:57:52;102259.75;;;-7.56;100.00
53758;BME280;39674;59.860;30.672;2022-12-18T01:00:20;102249.56;;;-7.54;100.00
53758;BME280;39674;59.860;30.672;2022-12-18T01:02:49;102247.06;;;-7.53;100.00
53758;BME280;39674;59.860;30.672;2022-12-18T01:05:17;102243.78;;;-7.50;100.00
53758;BME280;39674;59.860;30.672;2022-12-18T01:07:46;102248.75;;;-7.53;100.00
53758;BME280;39674;59.860;30.672;2022-12-18T01:10:16;102238.03;;;-7.63;100.00
53758;BME280;39674;59.860;30.672;2022-12-18T01:12:44;102233.06;;;-7.60;100.00
53758;BME280;39674;59.860;30.672;2022-12-18T01:15:14;102239.44;;;-7.69;100.00
53758;BME280;39674;59.860;30.672;2022-12-18T01:17:43;102242.75;;;-7.72;100.00
53758;BME280;39674;59.860;30.672;2022-12-18T01:20:12;102242.75;;;-7.72;100.00
53758;BME280;39674;59.860;30.672;2022-12-18T01:22:41;102248.91;;;-7.68;100.00
53758;BME280;39674;59.860;30.672;2022-12-18T01:25:11;102243.03;;;-7.66;100.00
53758;BME280;39674;59.860;30.672;2022-12-18T01:27:39;102243.16;;;-7.63;100.00
53758;BME280;39674;59.860;30.672;2022-12-18T01:30:08;102241.50;;;-7.62;100.00
53758;BME280;39674;59.860;30.672;2022-12-18T01:32:37;102238.78;;;-7.65;100.00
53758;BME280;39674;59.860;30.672;2022-12-18T01:35:07;102238.03;;;-7.63;100.00
53758;BME280;39674;59.860;30.672;2022-12-18T01:37:35;102242.31;;;-7.63;100.00
53758;BME280;39674;59.860;30.672;2022-12-18T01:40:03;102239.00;;;-7.61;100.00
53758;BME280;39674;59.860;30.672;2022-12-18T01:42:34;102234.81;;;-7.59;100.00
53758;BME280;39674;59.860;30.672;2022-12-18T01:45:04;102228.97;;;-7.56;100.00
53758;BME280;39674;59.860;30.672;2022-12-18T01:47:34;102229.69;;;-7.59;100.00
53758;BME280;39674;59.860;30.672;2022-12-18T01:50:09;102233.88;;;-7.61;100.00
53758;BME280;39674;59.860;30.672;2022-12-18T01:52:38;102239.78;;;-7.62;100.00
53758;BME280;39674;59.860;30.672;2022-12-18T01:55:08;102232.78;;;-7.66;100.00
53758;BME280;39674;59.860;30.672;2022-12-18T01:57:37;102230.13;;;-7.67;100.00
53758;BME280;39674;59.860;30.672;2022-12-18T02:00:07;102235.41;;;-7.64;100.00
53758;BME280;39674;59.860;30.672;2022-12-18T02:02:45;102234.53;;;-7.65;100.00
53758;BME280;39674;59.860;30.672;2022-12-18T02:05:16;102233.63;;;-7.65;100.00
53758;BME280;39674;59.860;30.672;2022-12-18T02:07:49;102241.28;;;-7.67;100.00
53758;BME280;39674;59.860;30.672;2022-12-18T02:10:22;102234.31;;;-7.69;100.00
53758;BME280;39674;59.860;30.672;2022-12-18T02:12:53;102239.22;;;-7.74;100.00
53758;BME280;39674;59.860;30.672;2022-12-18T02:15:26;102231.28;;;-7.79;100.00
53758;BME280;39674;59.860;30.672;2022-12-18T02:18:01;102231.22;;;-7.80;100.00
53758;BME280;39674;59.860;30.672;2022-12-18T02:20:36;102230.25;;;-7.82;100.00
53758;BME280;39674;59.860;30.672;2022-12-18T02:23:06;102223.53;;;-7.80;100.00
53758;BME280;39674;59.860;30.672;2022-12-18T02:28:24;102226.53;;;-7.71;100.00
53758;BME280;39674;59.860;30.672;2022-12-18T02:30:57;102226.69;;;-7.68;100.00
53758;BME280;39674;59.860;30.672;2022-12-18T02:33:28;102228.44;;;-7.67;100.00
53758;BME280;39674;59.860;30.672;2022-12-18T02:35:56;102222.50;;;-7.66;100.00
53758;BME280;39674;59.860;30.672;2022-12-18T02:38:26;102224.28;;;-7.65;100.00
53758;BME280;39674;59.860;30.672;2022-12-18T02:41:00;102224.09;;;-7.68;100.00
53758;BME280;39674;59.860;30.672;2022-12-18T02:43:30;102217.81;;;-7.75;100.00
53758;BME280;39674;59.860;30.672;2022-12-18T02:45:59;102215.16;;;-7.76;100.00
53758;BME280;39674;59.860;30.672;2022-12-18T02:48:31;102215.75;;;-7.82;100.00
53758;BME280;39674;59.860;30.672;2022-12-18T02:51:02;102215.84;;;-7.80;100.00
53758;BME280;39674;59.860;30.672;2022-12-18T02:53:36;102206.03;;;-7.71;100.00
53758;BME280;39674;59.860;30.672;2022-12-18T02:56:10;102215.91;;;-7.79;100.00
53758;BME280;39674;59.860;30.672;2022-12-18T02:58:45;102209.44;;;-7.88;100.00
53758;BME280;39674;59.860;30.672;2022-12-18T03:01:26;102204.19;;;-7.92;100.00
53758;BME280;39674;59.860;30.672;2022-12-18T03:04:01;102208.63;;;-7.87;100.00
53758;BME280;39674;59.860;30.672;2022-12-18T03:06:33;102213.78;;;-7.87;100.00
53758;BME280;39674;59.860;30.672;2022-12-18T03:09:09;102211.22;;;-7.87;100.00
53758;BME280;39674;59.860;30.672;2022-12-18T03:11:40;102214.56;;;-7.88;100.00
53758;BME280;39674;59.860;30.672;2022-12-18T03:14:30;102216.03;;;-7.94;100.00
53758;BME280;39674;59.860;30.672;2022-12-18T03:17:00;102226.47;;;-7.91;100.00
53758;BME280;39674;59.860;30.672;2022-12-18T03:19:31;102224.84;;;-7.88;100.00
53758;BME280;39674;59.860;30.672;2022-12-18T03:22:02;102222.13;;;-7.92;100.00
53758;BME280;39674;59.860;30.672;2022-12-18T03:24:41;102230.56;;;-7.94;100.00
53758;BME280;39674;59.860;30.672;2022-12-18T03:27:13;102226.16;;;-7.97;100.00
53758;BME280;39674;59.860;30.672;2022-12-18T03:29:45;102224.41;;;-7.98;100.00
53758;BME280;39674;59.860;30.672;2022-12-18T03:32:20;102227.91;;;-7.96;100.00
53758;BME280;39674;59.860;30.672;2022-12-18T03:34:50;102229.84;;;-7.92;100.00
53758;BME280;39674;59.860;30.672;2022-12-18T03:37:22;102224.94;;;-7.87;100.00
53758;BME280;39674;59.860;30.672;2022-12-18T03:39:54;102214.75;;;-7.85;100.00
53758;BME280;39674;59.860;30.672;2022-12-18T03:42:23;102221.47;;;-7.87;100.00
53758;BME280;39674;59.860;30.672;2022-12-18T03:45:06;102223.00;;;-7.91;100.00
53758;BME280;39674;59.860;30.672;2022-12-18T03:47:39;102217.97;;;-7.90;100.00
53758;BME280;39674;59.860;30.672;2022-12-18T03:50:14;102220.94;;;-7.98;100.00
53758;BME280;39674;59.860;30.672;2022-12-18T03:52:48;102223.81;;;-7.92;100.00
53758;BME280;39674;59.860;30.672;2022-12-18T03:55:17;102225.88;;;-8.03;100.00
53758;BME280;39674;59.860;30.672;2022-12-18T03:57:48;102224.91;;;-8.05;100.00
53758;BME280;39674;59.860;30.672;2022-12-18T04:00:19;102222.47;;;-8.02;100.00
53758;BME280;39674;59.860;30.672;2022-12-18T04:02:57;102220.53;;;-7.90;100.00
53758;BME280;39674;59.860;30.672;2022-12-18T04:05:34;102221.84;;;-7.98;100.00
53758;BME280;39674;59.860;30.672;2022-12-18T04:08:03;102225.69;;;-8.06;100.00
53758;BME280;39674;59.860;30.672;2022-12-18T04:10:36;102222.78;;;-8.14;100.00
53758;BME280;39674;59.860;30.672;2022-12-18T04:13:04;102228.63;;;-8.16;100.00
53758;BME280;39674;59.860;30.672;2022-12-18T04:15:35;102232.22;;;-8.13;100.00
53758;BME280;39674;59.860;30.672;2022-12-18T04:18:07;102226.94;;;-8.16;100.00
53758;BME280;39674;59.860;30.672;2022-12-18T04:20:39;102227.59;;;-8.20;100.00
53758;BME280;39674;59.860;30.672;2022-12-18T04:23:08;102223.50;;;-8.16;100.00
53758;BME280;39674;59.860;30.672;2022-12-18T04:25:37;102229.56;;;-8.14;100.00
53758;BME280;39674;59.860;30.672;2022-12-18T04:28:09;102234.06;;;-8.10;100.00
53758;BME280;39674;59.860;30.672;2022-12-18T04:30:41;102217.94;;;-8.08;100.00
53758;BME280;39674;59.860;30.672;2022-12-18T04:33:09;102224.53;;;-8.13;100.00
53758;BME280;39674;59.860;30.672;2022-12-18T04:35:38;102220.09;;;-8.15;100.00
53758;BME280;39674;59.860;30.672;2022-12-18T04:38:07;102227.00;;;-8.14;100.00
53758;BME280;39674;59.860;30.672;2022-12-18T04:40:36;102220.09;;;-8.15;100.00
53758;BME280;39674;59.860;30.672;2022-12-18T04:43:09;102230.38;;;-8.15;100.00
53758;BME280;39674;59.860;30.672;2022-12-18T04:45:38;102228.75;;;-8.13;100.00
53758;BME280;39674;59.860;30.672;2022-12-18T04:48:07;102233.09;;;-8.12;100.00
53758;BME280;39674;59.860;30.672;2022-12-18T04:50:36;102228.63;;;-8.16;100.00
53758;BME280;39674;59.860;30.672;2022-12-18T04:53:04;102228.75;;;-8.13;100.00
53758;BME280;39674;59.860;30.672;2022-12-18T04:55:32;102233.91;;;-8.13;100.00
53758;BME280;39674;59.860;30.672;2022-12-18T04:58:00;102245.91;;;-8.12;100.00
53758;BME280;39674;59.860;30.672;2022-12-18T05:00:29;102235.66;;;-8.12;100.00
53758;BME280;39674;59.860;30.672;2022-12-18T05:03:00;102227.16;;;-8.11;100.00
53758;BME280;39674;59.860;30.672;2022-12-18T05:05:30;102216.75;;;-8.14;100.00
53758;BME280;39674;59.860;30.672;2022-12-18T05:07:58;102224.53;;;-8.13;100.00
53758;BME280;39674;59.860;30.672;2022-12-18T05:10:26;102225.41;;;-8.12;100.00
53758;BME280;39674;59.860;30.672;2022-12-18T05:12:54;102223.63;;;-8.13;100.00
53758;BME280;39674;59.860;30.672;2022-12-18T05:15:28;102221.66;;;-8.19;100.00
53758;BME280;39674;59.860;30.672;2022-12-18T05:17:57;102228.47;;;-8.19;100.00
53758;BME280;39674;59.860;30.672;2022-12-18T05:20:25;102228.63;;;-8.16;100.00
53758;BME280;39674;59.860;30.672;2022-12-18T05:22:56;102240.78;;;-8.12;100.00
53758;BME280;39674;59.860;30.672;2022-12-18T05:25:24;102236.38;;;-8.15;100.00
53758;BME280;39674;59.860;30.672;2022-12-18T05:27:52;102232.13;;;-8.14;100.00
53758;BME280;39674;59.860;30.672;2022-12-18T05:30:20;102237.41;;;-8.11;100.00
53758;BME280;39674;59.860;30.672;2022-12-18T05:32:48;102230.03;;;-8.05;100.00
53758;BME280;39674;59.860;30.672;2022-12-18T05:35:16;102223.06;;;-8.08;100.00
53758;BME280;39674;59.860;30.672;2022-12-18T05:37:44;102223.94;;;-8.07;100.00
53758;BME280;39674;59.860;30.672;2022-12-18T05:40:14;102223.06;;;-8.08;100.00
53758;BME280;39674;59.860;30.672;2022-12-18T05:42:41;102234.06;;;-8.10;100.00
53758;BME280;39674;59.860;30.672;2022-12-18T05:45:09;102230.59;;;-8.11;100.00
53758;BME280;39674;59.860;30.672;2022-12-18T05:47:37;102234.69;;;-8.14;100.00
53758;BME280;39674;59.860;30.672;2022-12-18T05:50:06;102226.88;;;-8.17;100.00
53758;BME280;39674;59.860;30.672;2022-12-18T05:52:34;102219.81;;;-8.22;100.00
53758;BME280;39674;59.860;30.672;2022-12-18T05:55:03;102231.81;;;-8.20;100.00
53758;BME280;39674;59.860;30.672;2022-12-18T05:57:32;102229.44;;;-8.17;100.00
53758;BME280;39674;59.860;30.672;2022-12-18T06:00:00;102228.47;;;-8.19;100.00
53758;BME280;39674;59.860;30.672;2022-12-18T06:02:38;102232.56;;;-8.23;100.00
53758;BME280;39674;59.860;30.672;2022-12-18T06:05:06;102228.47;;;-8.19;100.00
53758;BME280;39674;59.860;30.672;2022-12-18T06:07:35;102215.84;;;-8.33;100.00
53758;BME280;39674;59.860;30.672;2022-12-18T06:10:04;102227.84;;;-8.32;100.00
53758;BME280;39674;59.860;30.672;2022-12-18T06:12:34;102225.94;;;-8.36;100.00
53758;BME280;39674;59.860;30.672;2022-12-18T06:15:02;102234.88;;;-8.28;100.00
53758;BME280;39674;59.860;30.672;2022-12-18T06:17:30;102228.41;;;-8.38;100.00
53758;BME280;39674;59.860;30.672;2022-12-18T06:19:58;102230.91;;;-8.39;100.00
53758;BME280;39674;59.860;30.672;2022-12-18T06:22:26;102241.16;;;-8.39;100.00
53758;BME280;39674;59.860;30.672;2022-12-18T06:24:55;102237.94;;;-8.35;100.00
53758;BME280;39674;59.860;30.672;2022-12-18T06:27:22;102244.81;;;-8.34;100.00
53758;BME280;39674;59.860;30.672;2022-12-18T06:29:52;102246.16;;;-8.42;100.00
53758;BME280;39674;59.860;30.672;2022-12-18T06:32:20;102242.75;;;-8.41;100.00
53758;BME280;39674;59.860;30.672;2022-12-18T06:34:49;102246.16;;;-8.42;100.00
53758;BME280;39674;59.860;30.672;2022-12-18T06:37:17;102244.69;;;-8.37;100.00
53758;BME280;39674;59.860;30.672;2022-12-18T06:39:45;102235.88;;;-8.42;100.00
53758;BME280;39674;59.860;30.672;2022-12-18T06:42:14;102239.69;;;-8.34;100.00
53758;BME280;39674;59.860;30.672;2022-12-18T06:44:42;102237.78;;;-8.38;100.00
53758;BME280;39674;59.860;30.672;2022-12-18T06:47:12;102253.00;;;-8.41;100.00
53758;BME280;39674;59.860;30.672;2022-12-18T06:49:40;102245.03;;;-8.47;100.00
53758;BME280;39674;59.860;30.672;2022-12-18T06:52:08;102244.91;;;-8.50;100.00
53758;BME280;39674;59.860;30.672;2022-12-18T06:54:36;102227.75;;;-8.51;100.00
53758;BME280;39674;59.860;30.672;2022-12-18T06:57:04;102242.41;;;-8.49;100.00
53758;BME280;39674;59.860;30.672;2022-12-18T06:59:32;102237.34;;;-8.47;100.00
53758;BME280;39674;59.860;30.672;2022-12-18T07:02:00;102229.81;;;-8.44;100.00
53758;BME280;39674;59.860;30.672;2022-12-18T07:04:31;102229.59;;;-8.49;100.00
53758;BME280;39674;59.860;30.672;2022-12-18T07:06:59;102225.91;;;-8.54;100.00
53758;BME280;39674;59.860;30.672;2022-12-18T07:09:27;102231.91;;;-8.53;100.00
53758;BME280;39674;59.860;30.672;2022-12-18T07:11:55;102226.06;;;-8.51;100.00
53758;BME280;39674;59.860;30.672;2022-12-18T07:14:23;102230.31;;;-8.51;100.00
53758;BME280;39674;59.860;30.672;2022-12-18T07:16:54;102228.72;;;-8.49;100.00
53758;BME280;39674;59.860;30.672;2022-12-18T07:19:24;102230.50;;;-8.48;100.00
53758;BME280;39674;59.860;30.672;2022-12-18T07:21:55;102223.28;;;-8.56;100.00
53758;BME280;39674;59.860;30.672;2022-12-18T07:24:27;102232.31;;;-8.62;100.00
53758;BME280;39674;59.860;30.672;2022-12-18T07:26:55;102222.97;;;-8.62;100.00
53758;BME280;39674;59.860;30.672;2022-12-18T07:29:25;102225.03;;;-8.55;100.00
53758;BME280;39674;59.860;30.672;2022-12-18T07:32:12;102225.03;;;-8.55;100.00
53758;BME280;39674;59.860;30.672;2022-12-18T07:34:40;102220.72;;;-8.56;100.00
53758;BME280;39674;59.860;30.672;2022-12-18T07:37:12;102221.22;;;-8.63;100.00
53758;BME280;39674;59.860;30.672;2022-12-18T07:39:44;102222.66;;;-8.68;100.00
53758;BME280;39674;59.860;30.672;2022-12-18T07:42:16;102216.09;;;-8.63;100.00
53758;BME280;39674;59.860;30.672;2022-12-18T07:44:59;102217.69;;;-8.65;100.00
53758;BME280;39674;59.860;30.672;2022-12-18T07:47:33;102221.03;;;-8.66;100.00
53758;BME280;39674;59.860;30.672;2022-12-18T07:50:05;102218.53;;;-8.64;100.00
53758;BME280;39674;59.860;30.672;2022-12-18T07:52:35;102215.78;;;-8.69;100.00
53758;BME280;39674;59.860;30.672;2022-12-18T07:55:04;102220.56;;;-8.75;100.00
53758;BME280;39674;59.860;30.672;2022-12-18T07:57:33;102223.47;;;-8.69;100.00
53758;BME280;39674;59.860;30.672;2022-12-18T08:00:08;102222.31;;;-8.74;100.00
53758;BME280;39674;59.860;30.672;2022-12-18T08:02:39;102222.00;;;-8.80;100.00
53758;BME280;39674;59.860;30.672;2022-12-18T08:05:07;102215.28;;;-8.78;100.00
53758;BME280;39674;59.860;30.672;2022-12-18T08:07:49;102216.88;;;-8.80;100.00
53758;BME280;39674;59.860;30.672;2022-12-18T08:10:18;102218.19;;;-8.89;100.00
53758;BME280;39674;59.860;30.672;2022-12-18T08:12:48;102220.09;;;-8.84;100.00
53758;BME280;39674;59.860;30.672;2022-12-18T08:15:25;102219.03;;;-8.88;100.00
53758;BME280;39674;59.860;30.672;2022-12-18T08:18:02;102225.06;;;-8.88;100.00
53758;BME280;39674;59.860;30.672;2022-12-18T08:20:35;102219.78;;;-8.91;100.00
53758;BME280;39674;59.860;30.672;2022-12-18T08:23:24;102222.66;;;-8.84;100.00
53758;BME280;39674;59.860;30.672;2022-12-18T08:25:53;102224.34;;;-8.85;100.00
53758;BME280;39674;59.860;30.672;2022-12-18T08:28:26;102223.63;;;-8.82;100.00
53758;BME280;39674;59.860;30.672;2022-12-18T08:30:58;102214.81;;;-8.88;100.00
53758;BME280;39674;59.860;30.672;2022-12-18T08:33:28;102229.94;;;-8.92;100.00
53758;BME280;39674;59.860;30.672;2022-12-18T08:35:57;102230.66;;;-8.95;100.00
53758;BME280;39674;59.860;30.672;2022-12-18T08:38:28;102234.63;;;-9.00;100.00
53758;BME280;39674;59.860;30.672;2022-12-18T08:40:58;102226.00;;;-9.02;100.00
53758;BME280;39674;59.860;30.672;2022-12-18T08:43:27;102217.84;;;-8.95;100.00
53758;BME280;39674;59.860;30.672;2022-12-18T08:46:15;102186.97;;;-8.98;100.00
53758;BME280;39674;59.860;30.672;2022-12-18T08:48:43;102183.78;;;-8.94;100.00
53758;BME280;39674;59.860;30.672;2022-12-18T08:51:11;102180.88;;;-8.83;100.00
53758;BME280;39674;59.860;30.672;2022-12-18T08:53:48;102174.53;;;-8.90;100.00
53758;BME280;39674;59.860;30.672;2022-12-18T08:56:17;102179.59;;;-8.92;100.00
53758;BME280;39674;59.860;30.672;2022-12-18T08:58:45;102173.53;;;-8.94;100.00
53758;BME280;39674;59.860;30.672;2022-12-18T09:01:15;102173.69;;;-8.91;100.00
53758;BME280;39674;59.860;30.672;2022-12-18T09:03:45;102172.31;;;-8.84;100.00
53758;BME280;39674;59.860;30.672;2022-12-18T09:06:18;102191.78;;;-8.88;100.00
53758;BME280;39674;59.860;30.672;2022-12-18T09:08:48;102195.13;;;-8.89;100.00
53758;BME280;39674;59.860;30.672;2022-12-18T09:11:19;102196.59;;;-8.94;100.00
53758;BME280;39674;59.860;30.672;2022-12-18T09:13:49;102209.53;;;-8.91;100.00
53758;BME280;39674;59.860;30.672;2022-12-18T09:16:22;102201.69;;;-8.77;100.00
53758;BME280;39674;59.860;30.672;2022-12-18T09:18:55;102199.66;;;-8.83;100.00
53758;BME280;39674;59.860;30.672;2022-12-18T09:21:27;102198.56;;;-8.88;100.00
53758;BME280;39674;59.860;30.672;2022-12-18T09:23:57;102191.13;;;-8.83;100.00
53758;BME280;39674;59.860;30.672;2022-12-18T09:26:26;102202.09;;;-8.86;100.00
53758;BME280;39674;59.860;30.672;2022-12-18T09:28:59;102190.16;;;-8.85;100.00
53758;BME280;39674;59.860;30.672;2022-12-18T09:31:30;102181.91;;;-8.96;100.00
53758;BME280;39674;59.860;30.672;2022-12-18T09:34:01;102192.25;;;-8.95;100.00
53758;BME280;39674;59.860;30.672;2022-12-18T09:36:31;102179.59;;;-8.92;100.00
53758;BME280;39674;59.860;30.672;2022-12-18T09:39:02;102185.75;;;-8.88;100.00
53758;BME280;39674;59.860;30.672;2022-12-18T09:41:34;102182.00;;;-8.95;100.00
53758;BME280;39674;59.860;30.672;2022-12-18T09:44:13;102179.44;;;-8.95;100.00
53758;BME280;39674;59.860;30.672;2022-12-18T09:46:58;102184.25;;;-9.01;100.00
53758;BME280;39674;59.860;30.672;2022-12-18T09:49:46;102177.50;;;-8.99;100.00
53758;BME280;39674;59.860;30.672;2022-12-18T09:52:34;102178.22;;;-9.01;100.00
53758;BME280;39674;59.860;30.672;2022-12-18T09:58:34;102163.78;;;-9.01;100.00
53758;BME280;39674;59.860;30.672;2022-12-18T10:02:15;102168.06;;;-9.00;100.00
53758;BME280;39674;59.860;30.672;2022-12-18T10:05:11;102181.13;;;-8.95;100.00
53758;BME280;39674;59.860;30.672;2022-12-18T10:08:04;102154.41;;;-9.00;100.00
53758;BME280;39674;59.860;30.672;2022-12-18T10:10:39;102153.59;;;-8.99;100.00
53758;BME280;39674;59.860;30.672;2022-12-18T10:13:18;102151.91;;;-8.99;100.00
53758;BME280;39674;59.860;30.672;2022-12-18T10:15:58;102154.78;;;-8.93;100.00
53758;BME280;39674;59.860;30.672;2022-12-18T10:18:33;102150.06;;;-8.85;100.00
53758;BME280;39674;59.860;30.672;2022-12-18T10:21:14;102158.63;;;-8.84;100.00
53758;BME280;39674;59.860;30.672;2022-12-18T10:23:50;102150.56;;;-8.92;100.00
53758;BME280;39674;59.860;30.672;2022-12-18T10:26:26;102146.31;;;-8.92;100.00
53758;BME280;39674;59.860;30.672;2022-12-18T10:28:54;102155.41;;;-8.80;100.00
53758;BME280;39674;59.860;30.672;2022-12-18T10:34:54;102147.09;;;-8.76;100.00
53758;BME280;39674;59.860;30.672;2022-12-18T10:37:25;102147.41;;;-8.70;100.00
53758;BME280;39674;59.860;30.672;2022-12-18T10:42:43;102136.84;;;-8.76;100.00
53758;BME280;39674;59.860;30.672;2022-12-18T10:45:13;102135.41;;;-8.71;100.00
53758;BME280;39674;59.860;30.672;2022-12-18T10:47:44;102121.63;;;-8.73;100.00
53758;BME280;39674;59.860;30.672;2022-12-18T10:50:23;102118.75;;;-8.79;100.00
53758;BME280;39674;59.860;30.672;2022-12-18T10:52:58;102127.41;;;-8.77;100.00
53758;BME280;39674;59.860;30.672;2022-12-18T10:55:33;102137.16;;;-8.70;100.00
53758;BME280;39674;59.860;30.672;2022-12-18T10:58:13;102127.22;;;-8.64;100.00
53758;BME280;39674;59.860;30.672;2022-12-18T11:00:44;102129.78;;;-8.64;100.00
53758;BME280;39674;59.860;30.672;2022-12-18T11:03:29;102139.22;;;-8.63;100.00
53758;BME280;39674;59.860;30.672;2022-12-18T11:06:08;102137.47;;;-8.64;100.00
53758;BME280;39674;59.860;30.672;2022-12-18T11:08:41;102145.09;;;-8.65;100.00
53758;BME280;39674;59.860;30.672;2022-12-18T11:11:20;102144.91;;;-8.52;100.00
53758;BME280;39674;59.860;30.672;2022-12-18T11:13:51;102152.34;;;-8.57;100.00
53758;BME280;39674;59.860;30.672;2022-12-18T11:16:23;102139.66;;;-8.53;100.00
53758;BME280;39674;59.860;30.672;2022-12-18T11:18:52;102138.34;;;-8.45;100.00
53758;BME280;39674;59.860;30.672;2022-12-18T11:21:23;102136.31;;;-8.52;100.00
53758;BME280;39674;59.860;30.672;2022-12-18T11:23:52;102140.81;;;-8.48;100.00
53758;BME280;39674;59.860;30.672;2022-12-18T11:26:20;102138.34;;;-8.45;100.00
53758;BME280;39674;59.860;30.672;2022-12-18T11:28:49;102123.81;;;-8.46;100.00
53758;BME280;39674;59.860;30.672;2022-12-18T11:31:24;102120.56;;;-8.42;100.00
53758;BME280;39674;59.860;30.672;2022-12-18T11:33:56;102113.81;;;-8.40;100.00
53758;BME280;39674;59.860;30.672;2022-12-18T11:36:28;102109.50;;;-8.41;100.00
53758;BME280;39674;59.860;30.672;2022-12-18T11:38:58;102105.72;;;-8.49;100.00
53758;BME280;39674;59.860;30.672;2022-12-18T11:41:27;102109.97;;;-8.50;100.00
53758;BME280;39674;59.860;30.672;2022-12-18T11:44:11;102100.88;;;-8.43;100.00
53758;BME280;39674;59.860;30.672;2022-12-18T11:46:43;102110.22;;;-8.44;100.00
53758;BME280;39674;59.860;30.672;2022-12-18T11:49:14;102104.53;;;-8.38;100.00
53758;BME280;39674;59.860;30.672;2022-12-18T11:51:48;102101.66;;;-8.44;100.00
53758;BME280;39674;59.860;30.672;2022-12-18T11:54:20;102099.97;;;-8.44;100.00
53758;BME280;39674;59.860;30.672;2022-12-18T11:56:49;102089.66;;;-8.45;100.00
53758;BME280;39674;59.860;30.672;2022-12-18T11:59:21;102097.50;;;-8.42;100.00
53758;BME280;39674;59.860;30.672;2022-12-18T12:02:03;102080.50;;;-8.40;100.00
53758;BME280;39674;59.860;30.672;2022-12-18T12:04:48;102070.25;;;-8.40;100.00
53758;BME280;39674;59.860;30.672;2022-12-18T12:07:24;102071.16;;;-8.40;100.00
53758;BME280;39674;59.860;30.672;2022-12-18T12:09:59;102060.97;;;-8.38;100.00
53758;BME280;39674;59.860;30.672;2022-12-18T12:12:32;102067.84;;;-8.37;100.00
53758;BME280;39674;59.860;30.672;2022-12-18T12:15:14;102060.00;;;-8.40;100.00
53758;BME280;39674;59.860;30.672;2022-12-18T12:18:06;102058.53;;;-8.35;100.00
53758;BME280;39674;59.860;30.672;2022-12-18T12:20:58;102051.38;;;-8.42;100.00
53758;BME280;39674;59.860;30.672;2022-12-18T12:23:36;102051.22;;;-8.45;100.00
53758;BME280;39674;59.860;30.672;2022-12-18T12:26:06;102058.97;;;-8.44;100.00
53758;BME280;39674;59.860;30.672;2022-12-18T12:28:49;102057.22;;;-8.45;100.00
53758;BME280;39674;59.860;30.672;2022-12-18T12:31:31;102053.13;;;-8.41;100.00
53758;BME280;39674;59.860;30.672;2022-12-18T12:34:05;102061.63;;;-8.42;100.00
53758;BME280;39674;59.860;30.672;2022-12-18T12:36:37;102058.63;;;-8.33;100.00
53758;BME280;39674;59.860;30.672;2022-12-18T12:39:10;102061.94;;;-8.36;100.00
53758;BME280;39674;59.860;30.672;2022-12-18T12:41:41;102062.50;;;-8.42;100.00
53758;BME280;39674;59.860;30.672;2022-12-18T12:44:28;102066.88;;;-8.39;100.00
53758;BME280;39674;59.860;30.672;2022-12-18T12:47:01;102067.03;;;-8.36;100.00
53758;BME280;39674;59.860;30.672;2022-12-18T12:49:33;102069.75;;;-8.33;100.00
53758;BME280;39674;59.860;30.672;2022-12-18T12:52:04;102055.03;;;-8.37;100.00
53758;BME280;39674;59.860;30.672;2022-12-18T12:54:37;102061.75;;;-8.39;100.00
53758;BME280;39674;59.860;30.672;2022-12-18T12:57:07;102062.22;;;-8.30;100.00
53758;BME280;39674;59.860;30.672;2022-12-18T12:59:40;102062.22;;;-8.30;100.00
53758;BME280;39674;59.860;30.672;2022-12-18T13:02:14;102071.66;;;-8.29;100.00
53758;BME280;39674;59.860;30.672;2022-12-18T13:04:48;102073.91;;;-8.35;100.00
53758;BME280;39674;59.860;30.672;2022-12-18T13:07:23;102068.28;;;-8.28;100.00